sensor_id;sensor_type;location;lat;lon;timestamp;P1;durP1;ratioP1;P2;durP2;ratioP2
53927;SDS011;39837;47.630;18.822;2023-05-14T00:01:18;4.20;;;3.88;;
53927;SDS011;39837;47.630;18.822;2023-05-14T00:04:02;3.35;;;3.13;;
53927;SDS011;39837;47.630;18.822;2023-05-14T00:06:46;3.55;;;3.25;;
53927;SDS011;39837;47.630;18.822;2023-05-14T00:09:31;4.93;;;3.80;;
53927;SDS011;39837;47.630;18.822;2023-05-14T00:12:15;3.80;;;3.50;;
53927;SDS011;39837;47.630;18.822;2023-05-14T00:14:59;4.30;;;3.58;;
53927;SDS011;39837;47.630;18.822;2023-05-14T00:17:43;3.58;;;3.28;;
53927;SDS011;39837;47.630;18.822;2023-05-14T00:20:28;3.60;;;3.30;;
53927;SDS011;39837;47.630;18.822;2023-05-14T00:23:12;7.38;;;3.38;;
53927;SDS011;39837;47.630;18.822;2023-05-14T00:25:56;3.58;;;3.28;;
53927;SDS011;39837;47.630;18.822;2023-05-14T00:28:40;4.90;;;3.35;;
53927;SDS011;39837;47.630;18.822;2023-05-14T00:31:24;3.35;;;3.15;;
53927;SDS011;39837;47.630;18.822;2023-05-14T00:34:08;3.55;;;3.28;;
53927;SDS011;39837;47.630;18.822;2023-05-14T00:36:52;5.13;;;3.53;;
53927;SDS011;39837;47.630;18.822;2023-05-14T00:39:36;3.50;;;3.20;;
53927;SDS011;39837;47.630;18.822;2023-05-14T00:42:20;3.30;;;3.00;;
53927;SDS011;39837;47.630;18.822;2023-05-14T00:45:04;5.13;;;4.07;;
53927;SDS011;39837;47.630;18.822;2023-05-14T00:47:49;3.33;;;2.65;;
53927;SDS011;39837;47.630;18.822;2023-05-14T00:50:33;3.72;;;3.42;;
53927;SDS011;39837;47.630;18.822;2023-05-14T00:53:18;3.83;;;3.45;;
53927;SDS011;39837;47.630;18.822;2023-05-14T00:56:02;3.53;;;3.22;;
53927;SDS011;39837;47.630;18.822;2023-05-14T00:58:46;3.28;;;3.08;;
53927;SDS011;39837;47.630;18.822;2023-05-14T01:01:30;4.15;;;3.85;;
53927;SDS011;39837;47.630;18.822;2023-05-14T01:04:15;4.15;;;3.45;;
53927;SDS011;39837;47.630;18.822;2023-05-14T01:10:38;2.80;;;2.70;;
53927;SDS011;39837;47.630;18.822;2023-05-14T01:13:26;4.53;;;3.78;;
53927;SDS011;39837;47.630;18.822;2023-05-14T01:16:13;4.03;;;3.75;;
53927;SDS011;39837;47.630;18.822;2023-05-14T01:18:58;3.75;;;3.45;;
53927;SDS011;39837;47.630;18.822;2023-05-14T01:21:43;3.95;;;3.65;;
53927;SDS011;39837;47.630;18.822;2023-05-14T01:24:27;8.15;;;3.60;;
53927;SDS011;39837;47.630;18.822;2023-05-14T01:30:54;3.17;;;2.97;;
53927;SDS011;39837;47.630;18.822;2023-05-14T01:33:40;3.28;;;3.05;;
53927;SDS011;39837;47.630;18.822;2023-05-14T01:36:25;3.55;;;3.20;;
53927;SDS011;39837;47.630;18.822;2023-05-14T01:39:10;5.43;;;3.25;;
53927;SDS011;39837;47.630;18.822;2023-05-14T01:41:54;3.65;;;3.08;;
53927;SDS011;39837;47.630;18.822;2023-05-14T01:44:38;3.13;;;2.92;;
53927;SDS011;39837;47.630;18.822;2023-05-14T01:47:22;3.90;;;3.60;;
53927;SDS011;39837;47.630;18.822;2023-05-14T01:50:06;3.28;;;3.08;;
53927;SDS011;39837;47.630;18.822;2023-05-14T01:52:51;3.75;;;3.45;;
53927;SDS011;39837;47.630;18.822;2023-05-14T01:55:35;3.03;;;2.83;;
53927;SDS011;39837;47.630;18.822;2023-05-14T01:58:19;4.00;;;3.30;;
53927;SDS011;39837;47.630;18.822;2023-05-14T02:01:04;3.22;;;2.92;;
53927;SDS011;39837;47.630;18.822;2023-05-14T02:03:48;3.65;;;3.35;;
53927;SDS011;39837;47.630;18.822;2023-05-14T02:06:32;3.30;;;3.03;;
53927;SDS011;39837;47.630;18.822;2023-05-14T02:09:16;3.15;;;2.95;;
53927;SDS011;39837;47.630;18.822;2023-05-14T02:12:00;3.78;;;3.47;;
53927;SDS011;39837;47.630;18.822;2023-05-14T02:14:44;2.72;;;2.53;;
53927;SDS011;39837;47.630;18.822;2023-05-14T02:17:28;3.58;;;3.25;;
53927;SDS011;39837;47.630;18.822;2023-05-14T02:20:12;3.70;;;3.42;;
53927;SDS011;39837;47.630;18.822;2023-05-14T02:22:56;3.67;;;3.38;;
53927;SDS011;39837;47.630;18.822;2023-05-14T02:25:40;4.38;;;3.67;;
53927;SDS011;39837;47.630;18.822;2023-05-14T02:28:24;6.97;;;3.42;;
53927;SDS011;39837;47.630;18.822;2023-05-14T02:31:08;4.22;;;3.90;;
53927;SDS011;39837;47.630;18.822;2023-05-14T02:33:53;3.35;;;3.08;;
53927;SDS011;39837;47.630;18.822;2023-05-14T02:36:37;3.13;;;2.90;;
53927;SDS011;39837;47.630;18.822;2023-05-14T02:39:21;3.80;;;3.50;;
53927;SDS011;39837;47.630;18.822;2023-05-14T02:42:05;3.78;;;2.92;;
53927;SDS011;39837;47.630;18.822;2023-05-14T02:44:50;3.08;;;2.83;;
53927;SDS011;39837;47.630;18.822;2023-05-14T02:47:35;3.95;;;3.30;;
53927;SDS011;39837;47.630;18.822;2023-05-14T02:50:19;3.10;;;2.90;;
53927;SDS011;39837;47.630;18.822;2023-05-14T02:53:03;3.58;;;3.28;;
53927;SDS011;39837;47.630;18.822;2023-05-14T02:55:47;4.10;;;3.67;;
53927;SDS011;39837;47.630;18.822;2023-05-14T02:58:30;2.55;;;2.40;;
53927;SDS011;39837;47.630;18.822;2023-05-14T03:01:14;2.88;;;2.67;;
53927;SDS011;39837;47.630;18.822;2023-05-14T03:03:59;8.48;;;3.30;;
53927;SDS011;39837;47.630;18.822;2023-05-14T03:06:43;3.60;;;3.35;;
53927;SDS011;39837;47.630;18.822;2023-05-14T03:09:26;2.92;;;2.72;;
53927;SDS011;39837;47.630;18.822;2023-05-14T03:12:11;3.15;;;2.78;;
53927;SDS011;39837;47.630;18.822;2023-05-14T03:14:57;5.00;;;2.92;;
53927;SDS011;39837;47.630;18.822;2023-05-14T03:17:41;2.60;;;2.50;;
53927;SDS011;39837;47.630;18.822;2023-05-14T03:20:25;2.63;;;2.45;;
53927;SDS011;39837;47.630;18.822;2023-05-14T03:23:09;3.83;;;3.53;;
53927;SDS011;39837;47.630;18.822;2023-05-14T03:25:53;3.10;;;2.90;;
53927;SDS011;39837;47.630;18.822;2023-05-14T03:28:38;3.10;;;2.90;;
53927;SDS011;39837;47.630;18.822;2023-05-14T03:31:23;3.15;;;2.85;;
53927;SDS011;39837;47.630;18.822;2023-05-14T03:34:07;3.78;;;3.45;;
53927;SDS011;39837;47.630;18.822;2023-05-14T03:36:51;3.78;;;2.83;;
53927;SDS011;39837;47.630;18.822;2023-05-14T03:39:35;3.92;;;3.35;;
53927;SDS011;39837;47.630;18.822;2023-05-14T03:42:19;2.40;;;2.30;;
53927;SDS011;39837;47.630;18.822;2023-05-14T03:45:03;3.17;;;2.88;;
53927;SDS011;39837;47.630;18.822;2023-05-14T03:47:48;2.92;;;2.72;;
53927;SDS011;39837;47.630;18.822;2023-05-14T03:50:32;3.13;;;2.90;;
53927;SDS011;39837;47.630;18.822;2023-05-14T03:53:16;2.40;;;2.28;;
53927;SDS011;39837;47.630;18.822;2023-05-14T03:56:00;3.00;;;2.40;;
53927;SDS011;39837;47.630;18.822;2023-05-14T03:58:44;2.70;;;2.05;;
53927;SDS011;39837;47.630;18.822;2023-05-14T04:01:28;2.55;;;2.45;;
53927;SDS011;39837;47.630;18.822;2023-05-14T04:04:12;2.92;;;2.67;;
53927;SDS011;39837;47.630;18.822;2023-05-14T04:06:55;4.47;;;3.38;;
53927;SDS011;39837;47.630;18.822;2023-05-14T04:09:39;2.85;;;2.50;;
53927;SDS011;39837;47.630;18.822;2023-05-14T04:12:23;3.00;;;2.65;;
53927;SDS011;39837;47.630;18.822;2023-05-14T04:15:09;2.55;;;2.35;;
53927;SDS011;39837;47.630;18.822;2023-05-14T04:17:53;3.50;;;3.20;;
53927;SDS011;39837;47.630;18.822;2023-05-14T04:20:37;2.95;;;2.75;;
53927;SDS011;39837;47.630;18.822;2023-05-14T04:23:21;8.45;;;2.72;;
53927;SDS011;39837;47.630;18.822;2023-05-14T04:26:05;2.58;;;2.47;;
53927;SDS011;39837;47.630;18.822;2023-05-14T04:28:49;3.03;;;2.38;;
53927;SDS011;39837;47.630;18.822;2023-05-14T04:31:33;2.67;;;2.40;;
53927;SDS011;39837;47.630;18.822;2023-05-14T04:34:17;5.68;;;2.65;;
53927;SDS011;39837;47.630;18.822;2023-05-14T04:37:01;2.70;;;2.50;;
53927;SDS011;39837;47.630;18.822;2023-05-14T04:39:47;2.22;;;2.13;;
53927;SDS011;39837;47.630;18.822;2023-05-14T04:42:31;2.88;;;2.67;;
53927;SDS011;39837;47.630;18.822;2023-05-14T04:45:14;2.65;;;2.45;;
53927;SDS011;39837;47.630;18.822;2023-05-14T04:47:59;2.90;;;2.70;;
53927;SDS011;39837;47.630;18.822;2023-05-14T04:50:43;2.42;;;2.33;;
53927;SDS011;39837;47.630;18.822;2023-05-14T04:53:27;10.60;;;3.10;;
53927;SDS011;39837;47.630;18.822;2023-05-14T04:56:11;2.80;;;2.60;;
53927;SDS011;39837;47.630;18.822;2023-05-14T04:58:55;3.30;;;3.00;;
53927;SDS011;39837;47.630;18.822;2023-05-14T05:01:40;2.67;;;2.45;;
53927;SDS011;39837;47.630;18.822;2023-05-14T05:04:23;2.55;;;2.45;;
53927;SDS011;39837;47.630;18.822;2023-05-14T05:07:09;2.17;;;2.03;;
53927;SDS011;39837;47.630;18.822;2023-05-14T05:09:53;2.50;;;2.30;;
53927;SDS011;39837;47.630;18.822;2023-05-14T05:12:37;4.70;;;3.00;;
53927;SDS011;39837;47.630;18.822;2023-05-14T05:15:21;2.92;;;2.60;;
53927;SDS011;39837;47.630;18.822;2023-05-14T05:18:05;2.80;;;2.55;;
53927;SDS011;39837;47.630;18.822;2023-05-14T05:20:49;3.35;;;2.70;;
53927;SDS011;39837;47.630;18.822;2023-05-14T05:23:34;10.35;;;2.70;;
53927;SDS011;39837;47.630;18.822;2023-05-14T05:26:18;3.50;;;2.95;;
53927;SDS011;39837;47.630;18.822;2023-05-14T05:29:02;2.47;;;2.38;;
53927;SDS011;39837;47.630;18.822;2023-05-14T05:31:46;1.73;;;1.73;;
53927;SDS011;39837;47.630;18.822;2023-05-14T05:34:31;4.68;;;3.15;;
53927;SDS011;39837;47.630;18.822;2023-05-14T05:37:15;2.85;;;2.65;;
53927;SDS011;39837;47.630;18.822;2023-05-14T05:40:00;5.30;;;2.80;;
53927;SDS011;39837;47.630;18.822;2023-05-14T05:42:44;3.03;;;2.83;;
53927;SDS011;39837;47.630;18.822;2023-05-14T05:45:28;2.70;;;2.47;;
53927;SDS011;39837;47.630;18.822;2023-05-14T05:48:11;2.90;;;2.63;;
53927;SDS011;39837;47.630;18.822;2023-05-14T05:50:56;2.83;;;2.63;;
53927;SDS011;39837;47.630;18.822;2023-05-14T05:53:40;2.50;;;2.30;;
53927;SDS011;39837;47.630;18.822;2023-05-14T05:56:24;2.05;;;1.95;;
53927;SDS011;39837;47.630;18.822;2023-05-14T05:59:08;4.60;;;2.67;;
53927;SDS011;39837;47.630;18.822;2023-05-14T06:01:52;2.50;;;2.30;;
53927;SDS011;39837;47.630;18.822;2023-05-14T06:04:36;3.22;;;2.53;;
53927;SDS011;39837;47.630;18.822;2023-05-14T06:07:20;5.45;;;2.03;;
53927;SDS011;39837;47.630;18.822;2023-05-14T06:10:04;6.00;;;2.35;;
53927;SDS011;39837;47.630;18.822;2023-05-14T06:12:48;2.30;;;2.20;;
53927;SDS011;39837;47.630;18.822;2023-05-14T06:15:32;2.03;;;1.92;;
53927;SDS011;39837;47.630;18.822;2023-05-14T06:18:16;3.42;;;2.85;;
53927;SDS011;39837;47.630;18.822;2023-05-14T06:21:00;2.83;;;2.53;;
53927;SDS011;39837;47.630;18.822;2023-05-14T06:23:44;2.53;;;2.38;;
53927;SDS011;39837;47.630;18.822;2023-05-14T06:26:28;2.58;;;2.38;;
53927;SDS011;39837;47.630;18.822;2023-05-14T06:29:12;3.08;;;2.85;;
53927;SDS011;39837;47.630;18.822;2023-05-14T06:32:00;3.55;;;3.25;;
53927;SDS011;39837;47.630;18.822;2023-05-14T06:34:44;3.38;;;3.10;;
53927;SDS011;39837;47.630;18.822;2023-05-14T06:37:28;2.65;;;2.45;;
53927;SDS011;39837;47.630;18.822;2023-05-14T06:40:12;3.28;;;3.03;;
53927;SDS011;39837;47.630;18.822;2023-05-14T06:42:58;3.65;;;3.25;;
53927;SDS011;39837;47.630;18.822;2023-05-14T06:45:42;2.20;;;2.10;;
53927;SDS011;39837;47.630;18.822;2023-05-14T06:48:26;2.70;;;2.60;;
53927;SDS011;39837;47.630;18.822;2023-05-14T06:51:11;2.58;;;2.40;;
53927;SDS011;39837;47.630;18.822;2023-05-14T06:53:55;3.20;;;3.00;;
53927;SDS011;39837;47.630;18.822;2023-05-14T06:56:39;6.53;;;2.92;;
53927;SDS011;39837;47.630;18.822;2023-05-14T06:59:23;2.70;;;2.50;;
53927;SDS011;39837;47.630;18.822;2023-05-14T07:02:07;2.88;;;2.67;;
53927;SDS011;39837;47.630;18.822;2023-05-14T07:04:51;4.88;;;3.72;;
53927;SDS011;39837;47.630;18.822;2023-05-14T07:07:35;3.50;;;2.90;;
53927;SDS011;39837;47.630;18.822;2023-05-14T07:10:19;2.28;;;2.17;;
53927;SDS011;39837;47.630;18.822;2023-05-14T07:13:03;6.55;;;3.35;;
53927;SDS011;39837;47.630;18.822;2023-05-14T07:15:48;3.95;;;3.58;;
53927;SDS011;39837;47.630;18.822;2023-05-14T07:18:32;7.13;;;3.20;;
53927;SDS011;39837;47.630;18.822;2023-05-14T07:21:16;7.55;;;3.90;;
53927;SDS011;39837;47.630;18.822;2023-05-14T07:24:00;3.75;;;3.17;;
53927;SDS011;39837;47.630;18.822;2023-05-14T07:26:45;2.85;;;2.60;;
53927;SDS011;39837;47.630;18.822;2023-05-14T07:29:29;3.13;;;2.92;;
53927;SDS011;39837;47.630;18.822;2023-05-14T07:32:13;4.28;;;3.42;;
53927;SDS011;39837;47.630;18.822;2023-05-14T07:34:57;3.53;;;3.22;;
53927;SDS011;39837;47.630;18.822;2023-05-14T07:37:41;3.00;;;2.72;;
53927;SDS011;39837;47.630;18.822;2023-05-14T07:40:25;3.40;;;2.97;;
53927;SDS011;39837;47.630;18.822;2023-05-14T07:43:10;8.57;;;3.33;;
53927;SDS011;39837;47.630;18.822;2023-05-14T07:45:54;5.63;;;3.60;;
53927;SDS011;39837;47.630;18.822;2023-05-14T07:48:38;3.53;;;3.15;;
53927;SDS011;39837;47.630;18.822;2023-05-14T07:51:22;2.90;;;2.67;;
53927;SDS011;39837;47.630;18.822;2023-05-14T07:54:06;9.57;;;2.67;;
53927;SDS011;39837;47.630;18.822;2023-05-14T07:56:50;4.40;;;2.90;;
53927;SDS011;39837;47.630;18.822;2023-05-14T07:59:36;2.85;;;2.65;;
53927;SDS011;39837;47.630;18.822;2023-05-14T08:02:20;2.53;;;2.38;;
53927;SDS011;39837;47.630;18.822;2023-05-14T08:05:04;5.50;;;2.97;;
53927;SDS011;39837;47.630;18.822;2023-05-14T08:07:49;2.78;;;2.58;;
53927;SDS011;39837;47.630;18.822;2023-05-14T08:10:33;2.58;;;2.38;;
53927;SDS011;39837;47.630;18.822;2023-05-14T08:13:17;4.40;;;2.70;;
53927;SDS011;39837;47.630;18.822;2023-05-14T08:16:01;5.72;;;3.00;;
53927;SDS011;39837;47.630;18.822;2023-05-14T08:18:45;3.33;;;3.13;;
53927;SDS011;39837;47.630;18.822;2023-05-14T08:21:30;3.17;;;2.88;;
53927;SDS011;39837;47.630;18.822;2023-05-14T08:24:15;2.55;;;2.33;;
53927;SDS011;39837;47.630;18.822;2023-05-14T08:27:00;2.80;;;2.70;;
53927;SDS011;39837;47.630;18.822;2023-05-14T08:29:44;2.95;;;2.75;;
53927;SDS011;39837;47.630;18.822;2023-05-14T08:32:29;2.80;;;2.70;;
53927;SDS011;39837;47.630;18.822;2023-05-14T08:35:13;3.03;;;2.63;;
53927;SDS011;39837;47.630;18.822;2023-05-14T08:37:57;2.72;;;2.45;;
53927;SDS011;39837;47.630;18.822;2023-05-14T08:40:45;3.42;;;3.13;;
53927;SDS011;39837;47.630;18.822;2023-05-14T08:43:37;2.97;;;2.55;;
53927;SDS011;39837;47.630;18.822;2023-05-14T08:46:35;2.85;;;2.65;;
53927;SDS011;39837;47.630;18.822;2023-05-14T08:49:42;5.53;;;3.45;;
53927;SDS011;39837;47.630;18.822;2023-05-14T08:52:27;7.00;;;2.70;;
53927;SDS011;39837;47.630;18.822;2023-05-14T08:55:11;3.35;;;2.95;;
53927;SDS011;39837;47.630;18.822;2023-05-14T08:57:55;5.18;;;2.78;;
53927;SDS011;39837;47.630;18.822;2023-05-14T09:00:39;2.92;;;2.75;;
53927;SDS011;39837;47.630;18.822;2023-05-14T09:03:23;2.30;;;2.20;;
53927;SDS011;39837;47.630;18.822;2023-05-14T09:06:07;3.33;;;2.70;;
53927;SDS011;39837;47.630;18.822;2023-05-14T09:08:52;3.30;;;3.10;;
53927;SDS011;39837;47.630;18.822;2023-05-14T09:11:39;2.88;;;2.58;;
53927;SDS011;39837;47.630;18.822;2023-05-14T09:14:24;3.88;;;3.35;;
53927;SDS011;39837;47.630;18.822;2023-05-14T09:17:09;2.90;;;2.70;;
53927;SDS011;39837;47.630;18.822;2023-05-14T09:22:38;4.05;;;3.35;;
53927;SDS011;39837;47.630;18.822;2023-05-14T09:25:25;3.08;;;2.88;;
53927;SDS011;39837;47.630;18.822;2023-05-14T09:28:10;2.80;;;2.60;;
53927;SDS011;39837;47.630;18.822;2023-05-14T09:30:54;3.13;;;2.85;;
53927;SDS011;39837;47.630;18.822;2023-05-14T09:33:38;3.30;;;3.03;;
53927;SDS011;39837;47.630;18.822;2023-05-14T09:36:21;3.78;;;3.47;;
53927;SDS011;39837;47.630;18.822;2023-05-14T09:41:52;5.03;;;3.33;;
53927;SDS011;39837;47.630;18.822;2023-05-14T09:44:36;3.17;;;2.95;;
53927;SDS011;39837;47.630;18.822;2023-05-14T09:47:22;3.40;;;3.10;;
53927;SDS011;39837;47.630;18.822;2023-05-14T09:50:07;4.63;;;3.75;;
53927;SDS011;39837;47.630;18.822;2023-05-14T09:52:53;9.07;;;3.20;;
53927;SDS011;39837;47.630;18.822;2023-05-14T09:55:38;4.00;;;3.38;;
53927;SDS011;39837;47.630;18.822;2023-05-14T09:58:22;7.72;;;3.88;;
53927;SDS011;39837;47.630;18.822;2023-05-14T10:01:06;7.22;;;3.10;;
53927;SDS011;39837;47.630;18.822;2023-05-14T10:03:54;5.32;;;3.42;;
53927;SDS011;39837;47.630;18.822;2023-05-14T10:06:39;4.18;;;3.88;;
53927;SDS011;39837;47.630;18.822;2023-05-14T10:12:09;4.10;;;3.72;;
53927;SDS011;39837;47.630;18.822;2023-05-14T10:14:53;3.50;;;3.20;;
53927;SDS011;39837;47.630;18.822;2023-05-14T10:17:39;4.20;;;3.45;;
53927;SDS011;39837;47.630;18.822;2023-05-14T10:20:23;4.82;;;3.00;;
53927;SDS011;39837;47.630;18.822;2023-05-14T10:23:09;4.35;;;3.95;;
53927;SDS011;39837;47.630;18.822;2023-05-14T10:25:53;7.22;;;3.70;;
53927;SDS011;39837;47.630;18.822;2023-05-14T10:28:38;3.70;;;3.40;;
53927;SDS011;39837;47.630;18.822;2023-05-14T10:31:23;3.40;;;3.10;;
53927;SDS011;39837;47.630;18.822;2023-05-14T10:34:33;4.00;;;3.40;;
53927;SDS011;39837;47.630;18.822;2023-05-14T10:37:24;3.47;;;3.17;;
53927;SDS011;39837;47.630;18.822;2023-05-14T10:40:09;4.03;;;3.70;;
53927;SDS011;39837;47.630;18.822;2023-05-14T10:42:53;3.72;;;3.25;;
53927;SDS011;39837;47.630;18.822;2023-05-14T10:45:38;3.25;;;2.95;;
53927;SDS011;39837;47.630;18.822;2023-05-14T10:48:23;3.95;;;3.55;;
53927;SDS011;39837;47.630;18.822;2023-05-14T10:51:09;4.43;;;2.92;;
53927;SDS011;39837;47.630;18.822;2023-05-14T10:53:54;9.02;;;2.85;;
53927;SDS011;39837;47.630;18.822;2023-05-14T10:56:39;4.55;;;2.90;;
53927;SDS011;39837;47.630;18.822;2023-05-14T10:59:26;2.83;;;2.63;;
53927;SDS011;39837;47.630;18.822;2023-05-14T11:02:44;3.05;;;2.85;;
53927;SDS011;39837;47.630;18.822;2023-05-14T11:05:21;3.60;;;2.90;;
53927;SDS011;39837;47.630;18.822;2023-05-14T11:08:07;4.80;;;4.28;;
53927;SDS011;39837;47.630;18.822;2023-05-14T11:10:51;6.47;;;3.83;;
53927;SDS011;39837;47.630;18.822;2023-05-14T11:13:34;4.68;;;3.05;;
53927;SDS011;39837;47.630;18.822;2023-05-14T11:16:20;3.70;;;3.40;;
53927;SDS011;39837;47.630;18.822;2023-05-14T11:19:05;4.32;;;3.50;;
53927;SDS011;39837;47.630;18.822;2023-05-14T11:21:49;3.90;;;3.58;;
53927;SDS011;39837;47.630;18.822;2023-05-14T11:24:34;3.67;;;3.38;;
53927;SDS011;39837;47.630;18.822;2023-05-14T11:27:19;4.15;;;3.70;;
53927;SDS011;39837;47.630;18.822;2023-05-14T11:30:04;3.03;;;2.83;;
53927;SDS011;39837;47.630;18.822;2023-05-14T11:32:49;3.30;;;3.10;;
53927;SDS011;39837;47.630;18.822;2023-05-14T11:35:34;5.70;;;3.83;;
53927;SDS011;39837;47.630;18.822;2023-05-14T11:38:19;4.63;;;4.22;;
53927;SDS011;39837;47.630;18.822;2023-05-14T11:41:03;4.30;;;3.50;;
53927;SDS011;39837;47.630;18.822;2023-05-14T11:43:48;3.55;;;3.22;;
53927;SDS011;39837;47.630;18.822;2023-05-14T11:46:32;3.88;;;3.53;;
53927;SDS011;39837;47.630;18.822;2023-05-14T11:49:16;5.70;;;4.28;;
53927;SDS011;39837;47.630;18.822;2023-05-14T11:52:05;3.70;;;3.40;;
53927;SDS011;39837;47.630;18.822;2023-05-14T11:54:50;3.92;;;3.35;;
53927;SDS011;39837;47.630;18.822;2023-05-14T11:57:34;9.48;;;3.25;;
53927;SDS011;39837;47.630;18.822;2023-05-14T12:00:18;6.47;;;3.15;;
53927;SDS011;39837;47.630;18.822;2023-05-14T12:05:58;4.35;;;3.58;;
53927;SDS011;39837;47.630;18.822;2023-05-14T12:08:43;4.65;;;3.80;;
53927;SDS011;39837;47.630;18.822;2023-05-14T12:11:31;3.90;;;3.60;;
53927;SDS011;39837;47.630;18.822;2023-05-14T12:14:17;3.83;;;3.43;;
53927;SDS011;39837;47.630;18.822;2023-05-14T12:19:50;4.07;;;3.60;;
53927;SDS011;39837;47.630;18.822;2023-05-14T12:22:35;19.35;;;10.60;;
53927;SDS011;39837;47.630;18.822;2023-05-14T12:25:19;12.93;;;9.23;;
53927;SDS011;39837;47.630;18.822;2023-05-14T12:28:13;7.85;;;5.82;;
53927;SDS011;39837;47.630;18.822;2023-05-14T12:30:58;4.07;;;3.63;;
53927;SDS011;39837;47.630;18.822;2023-05-14T12:33:42;5.72;;;4.60;;
53927;SDS011;39837;47.630;18.822;2023-05-14T12:36:26;6.60;;;3.40;;
53927;SDS011;39837;47.630;18.822;2023-05-14T12:39:11;3.77;;;3.47;;
53927;SDS011;39837;47.630;18.822;2023-05-14T12:41:55;5.95;;;4.28;;
53927;SDS011;39837;47.630;18.822;2023-05-14T12:44:39;5.05;;;4.00;;
53927;SDS011;39837;47.630;18.822;2023-05-14T12:47:24;3.10;;;2.90;;
53927;SDS011;39837;47.630;18.822;2023-05-14T12:50:08;5.60;;;3.95;;
53927;SDS011;39837;47.630;18.822;2023-05-14T12:52:52;4.38;;;4.03;;
53927;SDS011;39837;47.630;18.822;2023-05-14T12:55:36;4.47;;;3.33;;
53927;SDS011;39837;47.630;18.822;2023-05-14T12:58:20;4.50;;;3.65;;
53927;SDS011;39837;47.630;18.822;2023-05-14T13:01:04;3.78;;;3.47;;
53927;SDS011;39837;47.630;18.822;2023-05-14T13:03:49;8.20;;;4.30;;
53927;SDS011;39837;47.630;18.822;2023-05-14T13:06:33;14.25;;;4.82;;
53927;SDS011;39837;47.630;18.822;2023-05-14T13:09:17;4.07;;;3.78;;
53927;SDS011;39837;47.630;18.822;2023-05-14T13:12:01;4.35;;;3.95;;
53927;SDS011;39837;47.630;18.822;2023-05-14T13:14:46;3.15;;;2.95;;
53927;SDS011;39837;47.630;18.822;2023-05-14T13:17:30;3.58;;;3.28;;
53927;SDS011;39837;47.630;18.822;2023-05-14T13:20:14;3.92;;;3.25;;
53927;SDS011;39837;47.630;18.822;2023-05-14T13:25:44;4.20;;;3.90;;
53927;SDS011;39837;47.630;18.822;2023-05-14T13:28:28;3.03;;;2.83;;
53927;SDS011;39837;47.630;18.822;2023-05-14T13:31:12;6.95;;;3.28;;
53927;SDS011;39837;47.630;18.822;2023-05-14T13:33:59;7.22;;;3.20;;
53927;SDS011;39837;47.630;18.822;2023-05-14T13:36:45;3.80;;;3.50;;
53927;SDS011;39837;47.630;18.822;2023-05-14T13:39:29;3.92;;;3.63;;
53927;SDS011;39837;47.630;18.822;2023-05-14T13:42:13;2.67;;;2.55;;
53927;SDS011;39837;47.630;18.822;2023-05-14T13:44:57;5.45;;;3.58;;
53927;SDS011;39837;47.630;18.822;2023-05-14T13:47:41;6.45;;;4.53;;
53927;SDS011;39837;47.630;18.822;2023-05-14T13:50:26;5.85;;;4.22;;
53927;SDS011;39837;47.630;18.822;2023-05-14T13:53:10;5.57;;;3.47;;
53927;SDS011;39837;47.630;18.822;2023-05-14T13:55:53;4.47;;;3.97;;
53927;SDS011;39837;47.630;18.822;2023-05-14T13:58:41;8.40;;;4.10;;
53927;SDS011;39837;47.630;18.822;2023-05-14T14:01:24;3.95;;;3.03;;
53927;SDS011;39837;47.630;18.822;2023-05-14T14:04:09;4.05;;;3.72;;
53927;SDS011;39837;47.630;18.822;2023-05-14T14:06:54;3.53;;;3.25;;
53927;SDS011;39837;47.630;18.822;2023-05-14T14:09:38;3.83;;;3.50;;
53927;SDS011;39837;47.630;18.822;2023-05-14T14:12:23;2.92;;;2.72;;
53927;SDS011;39837;47.630;18.822;2023-05-14T14:15:07;4.57;;;3.47;;
53927;SDS011;39837;47.630;18.822;2023-05-14T14:17:51;3.88;;;3.58;;
53927;SDS011;39837;47.630;18.822;2023-05-14T14:20:35;4.47;;;4.03;;
53927;SDS011;39837;47.630;18.822;2023-05-14T14:23:19;6.50;;;3.45;;
53927;SDS011;39837;47.630;18.822;2023-05-14T14:26:03;5.10;;;4.30;;
53927;SDS011;39837;47.630;18.822;2023-05-14T14:28:48;4.28;;;3.88;;
53927;SDS011;39837;47.630;18.822;2023-05-14T14:31:32;4.55;;;4.15;;
53927;SDS011;39837;47.630;18.822;2023-05-14T14:34:17;6.13;;;4.72;;
53927;SDS011;39837;47.630;18.822;2023-05-14T14:37:01;4.35;;;3.40;;
53927;SDS011;39837;47.630;18.822;2023-05-14T14:39:45;4.15;;;3.55;;
53927;SDS011;39837;47.630;18.822;2023-05-14T14:42:29;3.58;;;3.38;;
53927;SDS011;39837;47.630;18.822;2023-05-14T14:45:13;5.22;;;3.88;;
53927;SDS011;39837;47.630;18.822;2023-05-14T14:51:08;4.25;;;3.95;;
53927;SDS011;39837;47.630;18.822;2023-05-14T14:53:52;3.28;;;3.08;;
53927;SDS011;39837;47.630;18.822;2023-05-14T14:56:36;4.10;;;3.70;;
53927;SDS011;39837;47.630;18.822;2023-05-14T14:59:20;8.82;;;3.83;;
53927;SDS011;39837;47.630;18.822;2023-05-14T15:02:04;3.45;;;3.22;;
53927;SDS011;39837;47.630;18.822;2023-05-14T15:04:49;2.60;;;2.45;;
53927;SDS011;39837;47.630;18.822;2023-05-14T15:07:33;2.60;;;2.40;;
53927;SDS011;39837;47.630;18.822;2023-05-14T15:10:17;3.70;;;3.40;;
53927;SDS011;39837;47.630;18.822;2023-05-14T15:13:01;3.70;;;3.40;;
53927;SDS011;39837;47.630;18.822;2023-05-14T15:15:45;3.97;;;3.47;;
53927;SDS011;39837;47.630;18.822;2023-05-14T15:18:30;2.90;;;2.70;;
53927;SDS011;39837;47.630;18.822;2023-05-14T15:21:13;3.10;;;2.90;;
53927;SDS011;39837;47.630;18.822;2023-05-14T15:23:57;2.65;;;2.55;;
53927;SDS011;39837;47.630;18.822;2023-05-14T15:26:41;2.92;;;2.72;;
53927;SDS011;39837;47.630;18.822;2023-05-14T15:29:25;3.50;;;3.20;;
53927;SDS011;39837;47.630;18.822;2023-05-14T15:32:09;3.40;;;3.10;;
53927;SDS011;39837;47.630;18.822;2023-05-14T15:34:54;2.50;;;2.30;;
53927;SDS011;39837;47.630;18.822;2023-05-14T15:37:38;2.17;;;2.08;;
53927;SDS011;39837;47.630;18.822;2023-05-14T15:40:25;2.25;;;2.15;;
53927;SDS011;39837;47.630;18.822;2023-05-14T15:43:09;2.20;;;2.10;;
53927;SDS011;39837;47.630;18.822;2023-05-14T15:45:53;2.45;;;2.35;;
53927;SDS011;39837;47.630;18.822;2023-05-14T15:48:38;2.85;;;2.63;;
53927;SDS011;39837;47.630;18.822;2023-05-14T15:51:22;1.70;;;1.70;;
53927;SDS011;39837;47.630;18.822;2023-05-14T15:54:06;1.98;;;1.92;;
53927;SDS011;39837;47.630;18.822;2023-05-14T15:56:50;2.75;;;2.53;;
53927;SDS011;39837;47.630;18.822;2023-05-14T15:59:34;3.22;;;2.85;;
53927;SDS011;39837;47.630;18.822;2023-05-14T16:02:18;2.80;;;2.60;;
53927;SDS011;39837;47.630;18.822;2023-05-14T16:05:02;2.95;;;2.75;;
53927;SDS011;39837;47.630;18.822;2023-05-14T16:07:47;2.80;;;2.58;;
53927;SDS011;39837;47.630;18.822;2023-05-14T16:10:31;2.40;;;2.20;;
53927;SDS011;39837;47.630;18.822;2023-05-14T16:13:15;3.85;;;2.63;;
53927;SDS011;39837;47.630;18.822;2023-05-14T16:15:59;4.88;;;2.78;;
53927;SDS011;39837;47.630;18.822;2023-05-14T16:18:44;2.70;;;2.45;;
53927;SDS011;39837;47.630;18.822;2023-05-14T16:21:28;7.32;;;2.95;;
53927;SDS011;39837;47.630;18.822;2023-05-14T16:24:11;2.42;;;2.33;;
53927;SDS011;39837;47.630;18.822;2023-05-14T16:26:55;2.30;;;2.08;;
53927;SDS011;39837;47.630;18.822;2023-05-14T16:29:39;2.80;;;2.60;;
53927;SDS011;39837;47.630;18.822;2023-05-14T16:32:23;2.90;;;2.40;;
53927;SDS011;39837;47.630;18.822;2023-05-14T16:35:08;2.88;;;2.67;;
53927;SDS011;39837;47.630;18.822;2023-05-14T16:37:52;2.47;;;2.28;;
53927;SDS011;39837;47.630;18.822;2023-05-14T16:40:37;2.80;;;2.30;;
53927;SDS011;39837;47.630;18.822;2023-05-14T16:43:22;2.30;;;2.20;;